To NAV CANADA Home Page Login to a new session Search on AWWS site Disclaimer Vers la page française équivalente Tips FAQ What's new on the site To the Forecasts and Observations / NOTAM section To "File a Flight Plan" website Publications and other links Update of the User's profile FIC Telephone Numbers My Weather Data Folder Route Weather Data Regional Weather Data Local Weather Data To the Forecasts and Observations / NOTAM section
Request Generated 01/26/2023 at 22:21:12 UTC . Weather information available at that time is displayed.


Go to a specific product

Save this request - Inactive

METAR/TAF

OTTAWA/MACDONALD-CARTIER INTL/ON    

METAR CYOW 262200Z 27012KT 15SM FEW035 FEW070 M05/M09 A2965 RMK SC1AC1 SC TR AC TR SLP048=
METAR CYOW 262100Z 28010KT 15SM FEW035 BKN070 M05/M09 A2961 RMK SC2AC4 SLP036=
METAR CYOW 262000Z 28009G16KT 15SM FEW035 OVC053 M05/M08 A2957 RMK SC1SC8 SC TR SLP024=

TAF CYOW 262040Z 2621/2718 28010G20KT P6SM SCT030 BKN060
BECMG 2703/2705 29005KT
FM270800 29005KT P6SM FEW060
FM271700 VRB03KT P6SM BKN060
RMK NXT FCST BY 270000Z

OTTAWA/GATINEAU/QC    

METAR CYND 262200Z 27008KT 15SM SCT026 BKN220 M05/M08 A2964 RMK SC3CI2 SLP042=
METAR CYND 262100Z 26008KT 15SM SCT028 BKN200 M04/M09 A2961 RMK SC4CI2 SLP031=
SPECI CYND 262013Z 28008KT 15SM SCT024 BKN060 BKN200 M04/M09 A2958 RMK SC4SC2CI1 SLP021=
METAR CYND 262000Z 29008KT 15SM -SN BKN023 OVC050 M04/M09 A2957 RMK SC5SC3 SLP018=

TAF CYND 261740Z 2618/2702 30010G20KT 6SM -SN SCT030 BKN060 TEMPO
2618/2619 2SM -SN OVC020
FM261900 30010KT P6SM SCT030 BKN060 TEMPO 2619/2621 5SM -SN
OVC020
RMK NXT FCST BY 270000Z


GRAPHICAL FA CLOUDS & WEATHER FORECASTS
To the Product Selector
Graphical FA gfacn33      

GRAPHICAL FA ICING, TURBULENCE & FREEZING LEVEL FORECASTS
To the Product Selector
Graphical FA gfacn33      

Your time UTC time
Weather data provided by Environment Canada and NAV CANADA